Time;durP1;ratioP1;P1;durP2;ratioP2;P2;SDS_P1;SDS_P2;PMS_P1;PMS_P2;Temp;Humidity;BMP_temperature;BMP_pressure;BME280_temperature;BME280_humidity;BME280_pressure;Samples;Min_cycle;Max_cycle;Signal;HPM_P1;HPM_P2
2024/01/06 00:03:21;;;;;;;5.37;4.80;;;;;;;8.85;45.80;98616.59;10235895;28;20235;-36
2024/01/06 00:08:23;;;;;;;7.30;5.10;;;;;;;8.75;46.05;98617.00;10230468;28;20605;-36
2024/01/06 00:13:24;;;;;;;6.53;4.70;;;;;;;8.97;45.62;98550.16;10255636;28;20262;-36
2024/01/06 00:18:26;;;;;;;6.63;4.60;;;;;;;8.18;46.29;98708.81;10243071;28;20263;-36
2024/01/06 00:23:28;;;;;;;7.20;4.30;;;;;;;8.86;44.92;98663.63;10243028;28;20254;-36
2024/01/06 00:28:30;;;;;;;6.10;4.57;;;;;;;8.75;46.07;98608.19;10244159;28;20235;-34
2024/01/06 00:33:31;;;;;;;8.23;4.47;;;;;;;9.02;44.97;98625.09;10253156;28;20325;-35
2024/01/06 00:38:34;;;;;;;5.73;4.40;;;;;;;9.28;44.92;98560.25;10247021;28;20666;-36
2024/01/06 00:43:36;;;;;;;5.57;4.70;;;;;;;9.87;43.94;98525.66;10252868;28;20282;-34
2024/01/06 00:48:38;;;;;;;6.37;4.87;;;;;;;10.32;43.34;98541.72;10254461;28;20227;-35
2024/01/06 00:53:40;;;;;;;8.07;4.73;;;;;;;8.92;45.47;98638.81;10247845;28;20291;-36
2024/01/06 00:58:42;;;;;;;8.77;5.43;;;;;;;10.13;43.55;98578.22;10234209;28;20644;-43
2024/01/06 01:03:43;;;;;;;5.60;4.50;;;;;;;8.91;44.83;98717.22;10254870;28;20704;-44
2024/01/06 01:08:45;;;;;;;6.57;4.87;;;;;;;8.55;45.77;98710.25;10222986;28;20278;-44
2024/01/06 01:13:47;;;;;;;6.83;4.17;;;;;;;8.93;45.31;98637.81;10228979;28;20239;-40
2024/01/06 01:18:49;;;;;;;5.63;3.90;;;;;;;10.11;43.54;98553.53;10232739;28;20596;-43
2024/01/06 01:23:51;;;;;;;5.43;4.03;;;;;;;10.74;42.25;98582.25;10232055;28;20783;-43
2024/01/06 01:28:53;;;;;;;6.90;4.00;;;;;;;8.21;46.69;98669.25;10232908;28;20240;-42
2024/01/06 01:33:55;;;;;;;4.90;4.10;;;;;;;6.73;48.22;98798.38;10225845;28;20283;-42
2024/01/06 01:38:57;;;;;;;5.80;3.80;;;;;;;9.25;44.37;98696.78;10229592;28;20255;-42
2024/01/06 01:43:59;;;;;;;6.40;4.10;;;;;;;9.03;45.47;98562.72;10223376;28;20314;-43
2024/01/06 01:49:02;;;;;;;4.70;3.67;;;;;;;8.78;45.38;98679.78;10230700;28;20231;-43
2024/01/06 01:54:05;;;;;;;6.47;3.97;;;;;;;7.40;47.36;98735.38;10218063;28;20231;-42
2024/01/06 01:59:13;;;;;;;4.40;4.00;;;;;;;8.73;45.24;98682.25;10211447;28;20675;-43
2024/01/06 02:04:15;;;;;;;4.00;3.60;;;;;;;8.87;46.18;98557.75;10229133;28;20693;-42
2024/01/06 02:09:17;;;;;;;5.87;3.70;;;;;;;6.95;47.83;98799.31;10229187;28;20748;-42
2024/01/06 02:14:19;;;;;;;5.80;3.30;;;;;;;8.92;46.07;98539.28;10230364;28;20227;-42
2024/01/06 02:19:21;;;;;;;5.57;3.67;;;;;;;8.70;45.48;98659.44;10227078;28;20235;-41
2024/01/06 02:24:22;;;;;;;3.90;3.23;;;;;;;8.65;45.50;98699.22;10228726;28;20248;-41
2024/01/06 02:29:24;;;;;;;7.50;3.70;;;;;;;8.26;46.55;98647.34;10228281;28;20781;-41
2024/01/06 02:34:26;;;;;;;8.30;4.60;;;;;;;8.16;47.02;98628.22;10230178;28;20223;-42
2024/01/06 02:39:28;;;;;;;4.70;3.87;;;;;;;8.90;44.80;98723.56;10224210;28;20733;-42
2024/01/06 02:44:30;;;;;;;4.27;3.40;;;;;;;9.34;44.19;98690.22;10227045;28;20579;-43
2024/01/06 02:49:31;;;;;;;7.17;3.80;;;;;;;8.48;45.92;98704.88;10226380;28;20248;-42
2024/01/06 02:54:33;;;;;;;6.77;3.50;;;;;;;9.84;43.87;98632.94;10222791;28;20239;-42
2024/01/06 02:59:35;;;;;;;3.80;3.43;;;;;;;8.96;44.76;98760.13;10222792;28;20736;-43
2024/01/06 03:04:37;;;;;;;6.30;3.77;;;;;;;8.54;45.05;98801.09;10225509;28;20235;-40
2024/01/06 03:09:38;;;;;;;5.33;3.70;;;;;;;8.84;45.11;98735.00;10231357;28;20650;-42
2024/01/06 03:14:40;;;;;;;5.13;4.30;;;;;;;9.85;43.24;98677.34;10220855;28;20255;-43
2024/01/06 03:19:44;;;;;;;4.53;4.03;;;;;;;9.18;43.93;98760.84;10226717;28;20257;-41
2024/01/06 03:24:46;;;;;;;5.03;3.90;;;;;;;9.08;44.21;98755.06;10226211;28;20235;-42
2024/01/06 03:29:48;;;;;;;4.47;3.67;;;;;;;8.36;45.14;98844.25;10229683;28;20586;-40
2024/01/06 03:34:50;;;;;;;6.20;3.83;;;;;;;9.05;44.32;98736.78;10228668;28;20235;-42
2024/01/06 03:39:51;;;;;;;4.50;3.93;;;;;;;9.28;43.93;98791.66;10228703;28;20721;-39
2024/01/06 03:44:53;;;;;;;9.23;3.87;;;;;;;8.97;44.33;98798.31;10210143;28;20614;-41
2024/01/06 03:49:55;;;;;;;6.57;3.70;;;;;;;9.53;43.07;98786.59;10218866;28;20772;-42
2024/01/06 03:54:57;;;;;;;4.13;3.73;;;;;;;9.21;43.37;98827.19;10233112;28;20314;-42
2024/01/06 03:59:58;;;;;;;5.13;4.07;;;;;;;9.37;43.70;98729.88;10232190;28;20235;-41
2024/01/06 04:05:00;;;;;;;6.77;4.13;;;;;;;8.48;44.87;98848.84;10233241;28;20293;-41
2024/01/06 04:10:02;;;;;;;4.43;3.73;;;;;;;8.71;44.85;98772.28;10221281;28;20286;-42
2024/01/06 04:15:04;;;;;;;7.20;4.50;;;;;;;9.01;43.89;98813.75;10234467;28;20228;-41
2024/01/06 04:20:06;;;;;;;7.43;4.10;;;;;;;8.51;45.26;98806.84;10239537;28;20795;-41
2024/01/06 04:25:08;;;;;;;4.80;4.10;;;;;;;8.53;45.38;98781.63;10337306;23;20233;-38
2024/01/06 04:30:10;;;;;;;5.20;4.13;;;;;;;10.30;43.20;98627.50;10348711;28;20240;-39
2024/01/06 04:35:12;;;;;;;4.93;4.27;;;;;;;8.59;45.70;98790.66;10353151;28;20695;-39
2024/01/06 04:40:14;;;;;;;4.73;4.00;;;;;;;9.49;44.17;98684.72;10346154;28;20264;-39
2024/01/06 04:45:16;;;;;;;6.67;4.10;;;;;;;8.84;44.86;98820.38;10350041;28;20288;-39
2024/01/06 04:50:17;;;;;;;5.43;3.80;;;;;;;9.12;44.49;98748.28;10350521;28;20245;-38
2024/01/06 04:55:19;;;;;;;6.90;4.10;;;;;;;5.88;48.84;98987.03;10348323;28;20687;-38
2024/01/06 05:00:21;;;;;;;4.33;4.00;;;;;;;6.62;49.96;98658.78;10347828;28;20415;-39
2024/01/06 05:05:22;;;;;;;8.50;3.80;;;;;;;7.92;48.12;98571.75;10340536;28;20264;-39
2024/01/06 05:10:24;;;;;;;4.77;4.00;;;;;;;7.12;48.52;98666.91;10339503;28;20233;-38
2024/01/06 05:15:26;;;;;;;5.97;3.67;;;;;;;8.26;46.11;98751.31;10340289;28;20233;-38
2024/01/06 05:20:28;;;;;;;4.40;4.00;;;;;;;8.40;45.73;98728.22;10346135;28;20240;-40
2024/01/06 05:25:30;;;;;;;4.50;3.60;;;;;;;7.40;47.41;98776.13;10344887;28;20630;-38
2024/01/06 05:30:31;;;;;;;5.17;3.77;;;;;;;8.50;47.06;98582.03;10344486;28;20232;-38
2024/01/06 05:35:33;;;;;;;4.37;3.77;;;;;;;9.67;44.04;98699.28;10344283;28;20233;-38
2024/01/06 05:40:35;;;;;;;6.43;3.87;;;;;;;9.47;44.28;98708.13;10340965;28;20237;-40
2024/01/06 05:45:37;;;;;;;4.53;4.07;;;;;;;9.01;45.05;98695.47;10344209;28;20328;-38
2024/01/06 05:50:40;;;;;;;5.17;4.10;;;;;;;8.20;45.94;98789.38;10342178;28;20240;-38
2024/01/06 05:55:42;;;;;;;6.17;3.90;;;;;;;8.32;46.25;98731.88;10346706;28;20240;-39
2024/01/06 06:00:45;;;;;;;6.27;4.23;;;;;;;9.10;45.40;98682.81;10342690;28;20588;-38
2024/01/06 06:05:47;;;;;;;5.53;3.63;;;;;;;8.48;45.59;98808.03;10343423;28;20234;-41
2024/01/06 06:11:01;;;;;;;5.03;4.10;;;;;;;8.30;46.52;98784.53;10342695;28;20238;-39
2024/01/06 06:16:04;;;;;;;4.83;3.83;;;;;;;9.53;45.03;98661.06;10341610;28;20409;-39
2024/01/06 06:21:09;;;;;;;6.23;4.37;;;;;;;9.81;44.32;98684.09;10346158;28;20320;-40
2024/01/06 06:26:11;;;;;;;6.77;3.77;;;;;;;8.05;46.08;98936.00;10339677;28;20702;-40
2024/01/06 06:31:13;;;;;;;7.20;3.70;;;;;;;7.80;46.88;98887.56;10345064;28;20599;-39
2024/01/06 06:36:15;;;;;;;4.80;3.90;;;;;;;9.05;45.53;98703.94;10347876;28;20372;-39
2024/01/06 06:41:17;;;;;;;8.37;4.20;;;;;;;9.38;43.98;98872.19;10344304;28;20635;-39
2024/01/06 06:46:18;;;;;;;7.33;3.90;;;;;;;9.27;44.66;98841.56;10342619;28;20225;-39
2024/01/06 06:51:24;;;;;;;10.87;6.10;;;;;;;8.77;46.28;98771.50;10343996;28;20443;-39
2024/01/06 06:56:26;;;;;;;6.60;4.47;;;;;;;8.80;45.43;98835.13;10340028;28;20252;-39
2024/01/06 07:01:28;;;;;;;7.67;4.70;;;;;;;8.43;46.33;98893.94;10344913;28;20234;-39
2024/01/06 07:06:32;;;;;;;6.43;5.33;;;;;;;8.86;45.58;98807.69;10347221;28;20260;-38
2024/01/06 07:11:34;;;;;;;8.60;4.97;;;;;;;7.88;47.40;98837.69;10340571;28;20236;-38
2024/01/06 07:16:36;;;;;;;7.23;4.47;;;;;;;8.81;46.76;98720.22;10341351;28;20237;-39
2024/01/06 07:21:38;;;;;;;4.63;4.07;;;;;;;7.80;47.86;98811.16;10352912;28;20284;-39
2024/01/06 07:26:39;;;;;;;5.30;3.80;;;;;;;7.98;47.21;98940.44;10350088;28;20236;-39
2024/01/06 07:31:41;;;;;;;7.80;4.47;;;;;;;8.87;45.41;98888.56;10355343;28;20257;-39
2024/01/06 07:36:43;;;;;;;7.73;5.30;;;;;;;9.14;45.52;98794.28;10345842;28;20228;-38
2024/01/06 07:41:46;;;;;;;7.27;4.70;;;;;;;8.83;46.13;98851.56;10344217;28;20240;-40
2024/01/06 07:46:47;;;;;;;7.73;4.50;;;;;;;9.17;45.54;98804.56;10350514;28;20327;-39
2024/01/06 07:51:49;;;;;;;9.20;4.50;;;;;;;8.28;46.38;98965.16;10352294;28;20245;-39
2024/01/06 07:56:51;;;;;;;8.80;4.13;;;;;;;9.28;45.25;98869.91;10347012;28;20230;-39
2024/01/06 08:01:53;;;;;;;5.57;4.80;;;;;;;9.74;45.04;98762.41;10350075;28;20238;-39
2024/01/06 08:06:55;;;;;;;7.13;5.07;;;;;;;7.55;47.23;99099.03;10342063;28;20233;-39
2024/01/06 08:11:56;;;;;;;7.27;4.90;;;;;;;8.00;47.27;99008.53;10348771;28;20233;-39
2024/01/06 08:16:58;;;;;;;7.90;5.23;;;;;;;9.37;45.62;98846.53;10351555;28;20225;-39
2024/01/06 08:22:00;;;;;;;6.70;5.37;;;;;;;8.94;46.92;98855.56;10352916;28;20780;-39
2024/01/06 08:27:01;;;;;;;5.63;4.80;;;;;;;8.84;46.62;98913.75;10349430;28;20303;-39
2024/01/06 08:32:04;;;;;;;6.63;4.97;;;;;;;9.52;45.87;98863.22;10343327;28;20418;-39
2024/01/06 08:37:05;;;;;;;6.97;5.00;;;;;;;9.67;45.85;98825.69;10347537;28;20230;-37
2024/01/06 08:42:07;;;;;;;7.17;5.30;;;;;;;9.12;46.80;98894.25;10347748;28;20803;-39
2024/01/06 08:47:10;;;;;;;9.97;6.93;;;;;;;9.10;47.14;98866.94;10346956;28;20618;-38
2024/01/06 08:52:11;;;;;;;7.37;5.40;;;;;;;9.53;46.44;98835.50;10356326;28;20249;-37
2024/01/06 08:57:13;;;;;;;8.87;7.37;;;;;;;8.22;48.10;98997.91;10347871;28;20263;-37
2024/01/06 09:02:15;;;;;;;7.40;5.50;;;;;;;9.43;47.17;98795.00;10347782;28;20402;-39
2024/01/06 09:07:17;;;;;;;6.63;5.37;;;;;;;7.97;47.79;99127.97;10345653;28;20244;-37
2024/01/06 09:12:18;;;;;;;8.53;6.53;;;;;;;8.77;48.30;98888.88;10346016;28;20990;-38
2024/01/06 09:17:20;;;;;;;9.20;5.43;;;;;;;7.99;49.12;98980.22;10346484;28;20265;-38
2024/01/06 09:22:23;;;;;;;9.13;6.57;;;;;;;8.15;48.99;98946.34;10347677;28;20244;-38
2024/01/06 09:27:25;;;;;;;9.10;6.17;;;;;;;7.89;48.20;99105.72;10344590;28;20225;-38
2024/01/06 09:32:27;;;;;;;8.00;6.13;;;;;;;9.51;47.30;98808.16;10345097;28;20237;-38
2024/01/06 09:37:29;;;;;;;9.30;6.83;;;;;;;8.66;47.65;99024.41;10350913;28;20241;-38
2024/01/06 09:42:30;;;;;;;8.43;6.17;;;;;;;8.35;48.04;99066.53;10346220;28;20245;-38
2024/01/06 09:47:34;;;;;;;8.70;5.60;;;;;;;9.67;46.96;98945.91;10346121;28;20229;-38
2024/01/06 09:52:43;;;;;;;6.93;6.23;;;;;;;9.25;47.53;99053.66;10339093;28;20511;-39
2024/01/06 09:57:45;;;;;;;8.57;6.43;;;;;;;10.22;46.39;98902.28;10341054;28;20283;-38
2024/01/06 10:02:51;;;;;;;10.77;7.43;;;;;;;9.41;47.02;99069.41;10350965;28;20233;-39
2024/01/06 10:07:53;;;;;;;10.10;8.17;;;;;;;9.07;48.39;99011.47;10347605;28;21201;-38
2024/01/06 10:12:55;;;;;;;15.63;10.90;;;;;;;9.42;47.30;99006.97;10350578;28;20230;-39
2024/01/06 10:17:58;;;;;;;15.77;9.13;;;;;;;10.18;46.81;98885.03;10342528;28;20216;-38
2024/01/06 10:23:05;;;;;;;10.60;6.60;;;;;;;10.67;45.70;98900.66;10363965;23;20242;-35
2024/01/06 10:28:07;;;;;;;6.87;6.10;;;;;;;9.93;46.60;99011.19;10327651;28;20264;-35
2024/01/06 10:33:10;;;;;;;10.13;7.00;;;;;;;10.13;46.36;98998.72;10328697;28;20337;-35
2024/01/06 10:38:12;;;;;;;9.17;6.77;;;;;;;10.48;45.83;98984.41;10322299;28;20727;-35
2024/01/06 10:43:14;;;;;;;8.67;6.67;;;;;;;11.39;44.49;98932.91;10326595;28;20241;-35
2024/01/06 10:48:16;;;;;;;7.07;6.37;;;;;;;9.12;47.19;99153.97;10326277;28;20246;-35
2024/01/06 10:53:22;;;;;;;7.20;6.23;;;;;;;10.03;46.29;99061.59;10315704;28;20237;-35
2024/01/06 10:58:24;;;;;;;8.03;6.37;;;;;;;10.23;46.13;99021.59;10325094;28;20245;-35
2024/01/06 11:06:13;;;;;;;7.33;5.87;;;;;;;7.78;51.79;98972.13;10555820;27;20311;-71
2024/01/06 11:11:22;;;;;;;8.67;6.27;;;;;;;8.19;50.73;98905.00;10527111;28;20234;-71
2024/01/06 11:16:37;;;;;;;9.17;5.90;;;;;;;8.78;50.20;98847.84;10533979;27;20240;-69
2024/01/06 11:21:39;;;;;;;7.63;5.97;;;;;;;9.51;48.67;98888.28;10525893;28;20317;-70
2024/01/06 11:26:45;;;;;;;7.17;6.37;;;;;;;9.18;49.33;98893.47;10525900;28;20266;-69
2024/01/06 11:32:21;;;;;;;6.67;5.97;;;;;;;8.82;49.52;98985.16;10527136;28;20230;-68
2024/01/06 11:37:38;;;;;;;7.27;5.90;;;;;;;8.45;49.51;99025.25;10524476;28;20224;-69
2024/01/06 11:42:44;;;;;;;8.77;6.53;;;;;;;9.41;48.36;98914.53;10537037;28;20297;-69
2024/01/06 11:47:48;;;;;;;6.10;5.50;;;;;;;8.98;48.65;99002.78;10519274;28;20240;-68
2024/01/06 11:52:50;;;;;;;7.70;6.20;;;;;;;9.27;48.83;98950.22;10509140;28;20238;-69
2024/01/06 11:57:52;;;;;;;6.43;5.33;;;;;;;9.65;48.05;98897.19;10512122;28;20295;-69
2024/01/06 12:02:58;;;;;;;7.53;6.10;;;;;;;7.56;51.67;99043.97;10482436;28;20722;-68
2024/01/06 12:08:02;;;;;;;7.90;6.40;;;;;;;9.57;48.00;98895.50;10479890;28;20266;-68
2024/01/06 12:13:08;;;;;;;6.73;5.90;;;;;;;8.04;50.23;99041.75;10485841;28;20216;-69
2024/01/06 12:18:10;;;;;;;7.63;6.37;;;;;;;8.59;50.43;98908.84;10452674;28;20314;-69
2024/01/06 12:23:11;;;;;;;7.70;6.67;;;;;;;9.02;49.10;98942.66;10457562;28;20243;-69
2024/01/06 12:28:15;;;;;;;11.90;7.83;;;;;;;8.90;49.44;98978.88;10493637;28;20256;-69
2024/01/06 12:33:16;;;;;;;7.67;6.43;;;;;;;9.72;48.20;98857.97;10496699;28;20239;-70
2024/01/06 12:38:20;;;;;;;8.43;6.30;;;;;;;8.94;48.49;99078.88;10498587;28;20236;-69
2024/01/06 12:43:21;;;;;;;12.83;10.30;;;;;;;10.12;47.16;98938.28;10496719;28;20245;-69
2024/01/06 12:48:24;;;;;;;10.30;7.97;;;;;;;9.99;47.11;98951.59;10489522;28;20259;-69
2024/01/06 12:53:25;;;;;;;7.50;6.80;;;;;;;10.43;46.42;98946.75;10492777;28;20226;-69
2024/01/06 12:58:27;;;;;;;7.60;6.20;;;;;;;9.71;47.20;99063.88;10493814;28;20793;-70
2024/01/06 13:03:29;;;;;;;7.13;6.23;;;;;;;9.80;47.70;98989.72;10490346;28;20261;-69
2024/01/06 13:08:31;;;;;;;8.20;6.23;;;;;;;10.07;47.33;98945.22;10501179;28;20317;-69
2024/01/06 13:13:32;;;;;;;8.37;6.80;;;;;;;9.99;46.71;99017.56;10502122;28;20275;-69
2024/01/06 13:18:34;;;;;;;8.17;6.77;;;;;;;10.63;46.38;98938.72;10486766;28;20243;-69
2024/01/06 13:23:36;;;;;;;9.23;8.30;;;;;;;9.52;47.90;99042.19;10495979;28;20714;-69
2024/01/06 13:28:38;;;;;;;9.27;7.83;;;;;;;10.33;46.49;99011.34;10495946;28;20239;-70
2024/01/06 13:33:39;;;;;;;10.23;8.03;;;;;;;9.44;47.99;99093.06;10489734;28;20299;-69
2024/01/06 13:38:41;;;;;;;9.93;7.37;;;;;;;9.81;47.52;98992.19;10491156;28;20230;-69
2024/01/06 13:43:43;;;;;;;9.37;8.40;;;;;;;9.29;48.22;99071.78;10491023;28;20259;-70
2024/01/06 13:48:45;;;;;;;11.17;8.53;;;;;;;10.53;46.50;98976.59;10481530;28;20235;-69
2024/01/06 13:53:48;;;;;;;9.63;8.07;;;;;;;10.37;46.64;98998.38;10485475;28;20246;-69
2024/01/06 13:58:51;;;;;;;7.90;7.10;;;;;;;9.53;47.95;99101.75;10490634;28;20672;-69
2024/01/06 14:03:57;;;;;;;12.10;8.53;;;;;;;9.93;47.38;99036.06;10491087;28;20237;-69
2024/01/06 14:09:00;;;;;;;9.57;8.37;;;;;;;10.29;46.90;99000.22;10490119;28;20253;-69
2024/01/06 14:14:01;;;;;;;9.20;7.00;;;;;;;8.55;49.72;99091.56;10487833;28;20230;-72
2024/01/06 14:19:03;;;;;;;10.50;8.07;;;;;;;9.62;47.65;99068.53;10497877;28;20227;-70
2024/01/06 14:24:05;;;;;;;9.67;7.30;;;;;;;9.72;47.99;98986.19;10493082;28;20261;-69
2024/01/06 14:29:07;;;;;;;8.17;6.93;;;;;;;10.84;46.21;98967.19;10493870;28;20232;-69
2024/01/06 14:34:09;;;;;;;10.60;8.10;;;;;;;9.73;48.22;99033.25;10487737;28;20239;-71
2024/01/06 14:39:11;;;;;;;13.33;9.97;;;;;;;9.96;47.35;99037.53;10492409;28;20767;-71
2024/01/06 14:44:13;;;;;;;14.17;10.57;;;;;;;9.95;47.50;99066.06;10488111;28;20316;-71
2024/01/06 14:49:14;;;;;;;13.67;10.47;;;;;;;10.89;45.56;99104.72;10490529;28;20266;-71
2024/01/06 14:54:16;;;;;;;13.30;10.53;;;;;;;10.06;47.40;99118.16;10488260;28;20227;-71
2024/01/06 14:59:18;;;;;;;11.50;8.57;;;;;;;11.19;45.17;99042.75;10486136;28;20350;-71
2024/01/06 15:04:22;;;;;;;12.10;10.40;;;;;;;11.01;45.11;99112.97;10489946;28;20240;-71
2024/01/06 15:09:25;;;;;;;12.17;9.70;;;;;;;10.60;46.47;99108.53;10487269;28;20290;-72
2024/01/06 15:14:27;;;;;;;12.17;8.87;;;;;;;10.98;46.00;99025.03;10484300;28;20539;-71
2024/01/06 15:19:31;;;;;;;9.80;8.80;;;;;;;10.85;45.90;99116.84;10489197;28;20238;-71
2024/01/06 15:24:32;;;;;;;12.47;8.03;;;;;;;10.50;46.00;99199.03;10482212;28;20230;-69
2024/01/06 15:29:34;;;;;;;11.40;8.17;;;;;;;11.09;45.13;99085.19;10488404;28;20908;-73
2024/01/06 15:34:36;;;;;;;16.57;11.37;;;;;;;10.82;45.27;99160.09;10484506;28;20277;-73
2024/01/06 15:39:37;;;;;;;12.43;10.10;;;;;;;10.66;46.21;99072.94;10481742;28;20785;-70
2024/01/06 15:44:39;;;;;;;13.43;10.63;;;;;;;11.41;44.66;99098.78;10484426;28;20241;-72
2024/01/06 15:49:41;;;;;;;10.53;7.40;;;;;;;9.79;47.87;99146.53;10486467;28;20632;-73
2024/01/06 15:54:43;;;;;;;12.20;9.33;;;;;;;10.40;45.69;99236.84;10494048;28;20238;-68
2024/01/06 15:59:45;;;;;;;8.90;7.73;;;;;;;10.24;47.06;99124.81;10476323;28;20239;-71
2024/01/06 16:04:47;;;;;;;14.07;9.20;;;;;;;11.51;44.76;99082.31;10485670;28;20616;-70
2024/01/06 16:09:49;;;;;;;10.03;8.43;;;;;;;10.38;47.11;99090.94;10482464;28;20239;-70
2024/01/06 16:14:50;;;;;;;10.60;8.13;;;;;;;10.45;46.26;99169.38;10452162;28;20303;-67
2024/01/06 16:19:52;;;;;;;9.63;7.60;;;;;;;10.05;46.50;99231.44;10480190;28;20228;-71
2024/01/06 16:24:54;;;;;;;10.07;8.60;;;;;;;11.11;45.22;99090.34;10482992;28;20603;-71
2024/01/06 16:29:55;;;;;;;9.30;7.73;;;;;;;10.79;45.73;99122.19;10486221;28;20329;-71
2024/01/06 16:34:58;;;;;;;11.47;8.20;;;;;;;11.06;45.12;99128.44;10480774;28;20793;-71
2024/01/06 16:40:00;;;;;;;8.70;7.77;;;;;;;11.15;45.69;99070.97;10483271;28;20254;-69
2024/01/06 16:45:03;;;;;;;9.17;7.67;;;;;;;11.28;45.05;99104.97;10479883;28;20548;-71
2024/01/06 16:50:05;;;;;;;10.43;7.90;;;;;;;11.55;44.43;99113.00;10481862;28;20235;-70
2024/01/06 16:55:07;;;;;;;9.73;7.77;;;;;;;10.36;46.48;99191.94;10478914;28;20835;-70
2024/01/06 17:00:10;;;;;;;9.17;7.63;;;;;;;11.23;45.05;99096.72;10483441;28;20289;-70
2024/01/06 17:05:11;;;;;;;11.80;8.53;;;;;;;11.09;45.44;99127.22;10481309;28;20238;-71
2024/01/06 17:10:14;;;;;;;11.30;8.90;;;;;;;9.74;48.21;99074.97;10468984;28;20309;-71
2024/01/06 17:15:16;;;;;;;9.43;8.30;;;;;;;8.84;48.52;99292.59;10482371;28;20661;-71
2024/01/06 17:20:18;;;;;;;12.20;8.93;;;;;;;10.08;47.80;99056.50;10484165;28;20674;-70
2024/01/06 17:25:19;;;;;;;10.53;8.80;;;;;;;10.36;47.53;99016.28;10481330;28;20622;-70
2024/01/06 17:30:21;;;;;;;10.33;8.30;;;;;;;10.13;47.50;99038.00;10483073;28;20243;-70
2024/01/06 17:35:24;;;;;;;10.27;7.27;;;;;;;10.40;46.67;99121.00;10481495;28;20227;-70
2024/01/06 17:40:26;;;;;;;9.80;7.77;;;;;;;10.09;46.33;99189.97;10478549;28;20233;-70
2024/01/06 17:45:27;;;;;;;12.70;8.13;;;;;;;10.11;46.46;99174.53;10477659;28;20235;-69
2024/01/06 17:50:29;;;;;;;15.53;11.87;;;;;;;10.97;45.56;99086.81;10481156;28;20246;-70
2024/01/06 17:55:31;;;;;;;15.50;10.43;;;;;;;10.68;45.70;99139.59;10473922;28;20484;-69
2024/01/06 18:00:32;;;;;;;11.93;8.33;;;;;;;10.29;46.39;99151.78;10478120;28;20287;-71
2024/01/06 18:05:34;;;;;;;11.40;7.47;;;;;;;10.55;46.06;99158.31;10468151;28;20237;-71
2024/01/06 18:10:36;;;;;;;9.80;8.53;;;;;;;10.68;45.30;99185.09;10480760;28;20247;-71
2024/01/06 18:15:38;;;;;;;8.80;7.00;;;;;;;10.81;45.13;99166.44;10478653;28;20235;-70
2024/01/06 18:20:43;;;;;;;11.03;7.90;;;;;;;10.80;45.39;99135.38;10461233;28;20363;-71
2024/01/06 18:25:50;;;;;;;10.47;8.03;;;;;;;10.66;45.31;99257.56;10477612;28;20250;-71
2024/01/06 18:30:53;;;;;;;9.23;6.67;;;;;;;10.58;45.64;99179.28;10478542;28;20762;-69
2024/01/06 18:35:55;;;;;;;9.10;8.03;;;;;;;10.75;45.35;99198.53;10474512;28;20252;-71
2024/01/06 18:40:58;;;;;;;10.67;8.47;;;;;;;11.41;44.66;99106.81;10480717;28;20238;-71
2024/01/06 18:46:00;;;;;;;8.83;7.03;;;;;;;11.59;43.67;99186.56;10472659;28;20235;-70
2024/01/06 18:51:02;;;;;;;9.77;7.00;;;;;;;11.68;43.54;99222.09;10478030;28;20428;-70
2024/01/06 18:56:04;;;;;;;10.43;7.70;;;;;;;11.41;43.76;99252.31;10476460;28;20229;-70
2024/01/06 19:01:05;;;;;;;10.10;8.63;;;;;;;11.34;44.69;99192.53;10472094;28;20262;-70
2024/01/06 19:06:07;;;;;;;9.70;7.27;;;;;;;9.82;46.35;99311.84;10477737;28;20231;-71
2024/01/06 19:11:09;;;;;;;7.00;6.13;;;;;;;10.00;45.96;99287.34;10477756;28;20322;-71
2024/01/06 19:16:10;;;;;;;9.73;7.53;;;;;;;8.30;49.49;99304.31;10475593;28;20702;-69
2024/01/06 19:21:13;;;;;;;12.90;8.43;;;;;;;7.87;51.79;99187.66;10477310;28;20239;-70
2024/01/06 19:26:15;;;;;;;11.77;9.27;;;;;;;8.89;49.36;99170.16;10480858;28;20714;-70
2024/01/06 19:31:17;;;;;;;9.87;8.43;;;;;;;8.34;51.18;99094.22;10485158;28;20260;-70
2024/01/06 19:36:18;;;;;;;10.20;8.17;;;;;;;10.08;48.41;99008.38;10487592;28;20257;-71
2024/01/06 19:41:20;;;;;;;11.97;8.57;;;;;;;8.99;48.57;99234.75;10486082;28;20262;-71
2024/01/06 19:46:22;;;;;;;9.90;8.27;;;;;;;8.83;48.83;99267.75;10479255;28;20455;-71
2024/01/06 19:51:24;;;;;;;9.30;7.80;;;;;;;7.18;51.56;99286.97;10485578;28;20246;-71
2024/01/06 19:56:25;;;;;;;12.70;8.67;;;;;;;8.91;48.45;99223.34;10481814;28;20227;-71
2024/01/06 20:01:27;;;;;;;9.67;7.90;;;;;;;9.14;49.02;99077.19;10485947;28;20235;-70
2024/01/06 20:06:29;;;;;;;14.73;11.03;;;;;;;8.46;49.60;99194.84;10480114;28;20267;-71
2024/01/06 20:11:31;;;;;;;9.40;7.93;;;;;;;9.15;49.50;99025.47;10475016;28;20329;-70
2024/01/06 20:16:32;;;;;;;9.97;7.87;;;;;;;8.44;49.00;99145.41;10477263;28;20235;-76
2024/01/06 20:21:34;;;;;;;7.90;6.93;;;;;;;9.54;47.16;99128.28;10467784;28;20249;-70
2024/01/06 20:26:35;;;;;;;6.50;5.00;;;;;;;8.00;49.40;99085.78;10473592;28;20706;-72
2024/01/06 20:31:37;;;;;;;6.27;5.03;;;;;;;8.34;48.66;99046.22;10480369;28;20238;-69
2024/01/06 20:36:41;;;;;;;6.17;5.40;;;;;;;7.77;48.61;99213.69;10476667;28;20843;-67
2024/01/06 20:41:43;;;;;;;8.33;6.10;;;;;;;8.20;47.77;99170.50;10481540;28;20335;-69
2024/01/06 20:46:47;;;;;;;6.07;4.80;;;;;;;7.72;48.84;99121.00;10479774;28;20235;-70
2024/01/06 20:51:51;;;;;;;6.87;5.47;;;;;;;7.29;48.78;99239.66;10467060;28;20246;-70
2024/01/06 20:56:53;;;;;;;5.73;5.10;;;;;;;7.32;49.03;99162.94;10464934;28;20278;-69
2024/01/06 21:01:55;;;;;;;6.33;5.30;;;;;;;7.73;49.15;99016.13;10487358;28;20594;-70
2024/01/06 21:06:56;;;;;;;8.50;4.70;;;;;;;7.12;49.14;99140.50;10483759;28;20254;-68
2024/01/06 21:11:58;;;;;;;6.53;5.13;;;;;;;7.20;48.60;99206.97;10488087;28;20245;-70
2024/01/06 21:17:01;;;;;;;5.37;4.87;;;;;;;6.06;49.75;99347.22;10482750;28;20234;-70
2024/01/06 21:22:03;;;;;;;5.37;4.53;;;;;;;6.49;49.75;99219.44;10478227;28;20269;-75
2024/01/06 21:27:05;;;;;;;7.20;5.40;;;;;;;7.09;49.17;99139.03;10462081;28;20235;-68
2024/01/06 21:32:06;;;;;;;6.77;5.57;;;;;;;7.47;48.41;99164.84;10468171;28;20246;-70
2024/01/06 21:37:08;;;;;;;6.53;5.50;;;;;;;7.41;49.02;99096.34;10472594;28;20231;-69
2024/01/06 21:42:10;;;;;;;5.80;5.20;;;;;;;7.36;48.63;99206.84;10476797;28;20242;-69
2024/01/06 21:47:11;;;;;;;6.80;5.53;;;;;;;7.53;48.38;99244.00;10472790;28;20705;-68
2024/01/06 21:52:13;;;;;;;7.03;5.03;;;;;;;7.51;48.98;99171.47;10475590;28;20241;-71
2024/01/06 21:57:15;;;;;;;7.70;5.10;;;;;;;8.20;47.99;99118.03;10466014;28;20227;-68
2024/01/06 22:02:17;;;;;;;7.90;5.73;;;;;;;9.06;46.68;99148.56;10481503;28;21063;-71
2024/01/06 22:07:19;;;;;;;7.90;6.33;;;;;;;8.37;47.17;99181.78;10476465;28;20223;-71
2024/01/06 22:12:21;;;;;;;8.70;6.27;;;;;;;8.02;47.80;99189.53;10482973;28;20281;-68
2024/01/06 22:17:22;;;;;;;9.67;7.27;;;;;;;9.03;46.65;99155.13;10470958;28;20310;-71
2024/01/06 22:22:25;;;;;;;7.67;6.10;;;;;;;8.26;48.22;99113.78;10483961;28;20235;-73
2024/01/06 22:27:27;;;;;;;8.30;6.17;;;;;;;8.48;47.31;99190.16;10475613;28;20706;-71
2024/01/06 22:32:28;;;;;;;8.53;6.20;;;;;;;8.75;47.27;99139.00;10482593;28;20732;-70
2024/01/06 22:37:30;;;;;;;8.50;6.37;;;;;;;7.72;48.50;99224.06;10476138;28;20235;-70
2024/01/06 22:42:32;;;;;;;6.60;5.90;;;;;;;7.24;49.56;99215.41;10479859;28;20338;-70
2024/01/06 22:47:34;;;;;;;6.43;5.10;;;;;;;7.97;48.52;99206.06;10457721;28;20249;-70
2024/01/06 22:52:35;;;;;;;6.60;5.80;;;;;;;6.86;50.29;99327.84;10457537;28;20642;-70
2024/01/06 22:57:37;;;;;;;7.80;5.63;;;;;;;7.30;49.33;99329.97;10472364;28;20255;-70
2024/01/06 23:02:39;;;;;;;8.37;6.20;;;;;;;7.95;49.23;99208.06;10481852;28;20235;-68
2024/01/06 23:07:40;;;;;;;7.50;6.17;;;;;;;7.78;50.06;99166.56;10477639;28;20237;-72
2024/01/06 23:12:42;;;;;;;12.13;7.20;;;;;;;8.98;47.98;99146.88;10481528;28;20324;-69
2024/01/06 23:17:44;;;;;;;9.17;7.07;;;;;;;8.65;47.77;99264.66;10476926;28;20235;-71
2024/01/06 23:22:46;;;;;;;10.90;7.43;;;;;;;9.57;46.84;99146.59;10484251;28;20242;-68
2024/01/06 23:27:49;;;;;;;8.83;6.53;;;;;;;8.84;47.50;99231.22;10469833;28;20697;-70
2024/01/06 23:32:51;;;;;;;10.07;7.73;;;;;;;8.74;47.98;99204.88;10482281;28;20233;-67
2024/01/06 23:37:53;;;;;;;9.10;6.40;;;;;;;8.19;47.31;99417.56;10478465;28;20210;-70